Terminal Aerodrome Forecast
Issued by NWS Spokane, WA

Home | Current Version | Previous Version | Text Only | Print | Product List | Glossary On
Versions: 1 2 3 4 5 6 7 8 9 10 11 12 13 14 15 16 17 18 19 20 21 22 23 24 25 26 27 28 29 30 31 32 33 34 35 36 37 38
000
FTUS46 KOTX 271145 CCA
TAFEAT
TAF COR
KEAT 271145Z 2712/2812 07003KT 3SM BR BCFG SCT002 SCT040 BKN060
      TEMPO 2712/2715 1/2SM FZFG BKN002
     FM271700 VRB03KT P6SM SCT040 OVC060
     FM272200 VRB03KT 5SM -SN OVC025
     FM280200 33006KT P6SM SCT030 BKN080=

USA.gov is the U.S. government's official web portal to all federal, state and local government web resources and services.